Time;durP1;ratioP1;P1;durP2;ratioP2;P2;SDS_P1;SDS_P2;PMS_P1;PMS_P2;Temp;Humidity;BMP_temperature;BMP_pressure;BME280_temperature;BME280_humidity;BME280_pressure;Samples;Min_cycle;Max_cycle;Signal;HPM_P1;HPM_P2
2023/10/03 00:00:31;;;;;;;12.53;7.77;;;19.90;99.90;;;;;;5028032;28;20211;-70
2023/10/03 00:02:59;;;;;;;9.13;7.25;;;19.90;99.90;;;;;;5015955;28;20864;-71
2023/10/03 00:05:28;;;;;;;9.73;7.32;;;19.90;99.90;;;;;;5024893;28;20217;-70
2023/10/03 00:07:57;;;;;;;10.60;7.63;;;19.80;99.90;;;;;;5025737;28;20963;-70
2023/10/03 00:10:25;;;;;;;11.00;7.13;;;19.80;99.90;;;;;;5020844;28;20695;-70
2023/10/03 00:12:52;;;;;;;12.27;7.63;;;19.80;99.90;;;;;;5019751;28;20260;-70
2023/10/03 00:15:21;;;;;;;11.40;7.30;;;19.80;99.90;;;;;;5020074;28;20278;-69
2023/10/03 00:17:49;;;;;;;9.87;7.27;;;19.80;99.90;;;;;;5024208;28;20853;-70
2023/10/03 00:20:18;;;;;;;9.70;7.33;;;19.80;99.90;;;;;;5019994;28;20747;-69
2023/10/03 00:22:45;;;;;;;8.32;7.05;;;19.70;99.90;;;;;;5027739;28;20230;-69
2023/10/03 00:25:18;;;;;;;10.83;7.17;;;19.70;99.90;;;;;;5027385;28;20303;-70
2023/10/03 00:27:46;;;;;;;13.70;7.83;;;19.70;99.90;;;;;;5027889;28;20200;-69
2023/10/03 00:30:13;;;;;;;12.20;7.67;;;19.70;99.90;;;;;;5027789;28;20237;-70
2023/10/03 00:32:41;;;;;;;9.70;7.50;;;19.70;99.90;;;;;;5028131;28;20240;-70
2023/10/03 00:35:08;;;;;;;9.77;7.05;;;19.70;99.90;;;;;;5027375;28;20209;-70
2023/10/03 00:37:37;;;;;;;8.33;6.83;;;19.60;99.90;;;;;;5027626;28;20765;-70
2023/10/03 00:40:16;;;;;;;10.83;7.47;;;19.60;99.90;;;;;;5028061;28;20630;-70
2023/10/03 00:42:45;;;;;;;9.90;7.00;;;19.60;99.90;;;;;;5026847;28;20637;-70
2023/10/03 00:45:14;;;;;;;10.60;7.20;;;19.60;99.90;;;;;;5027088;28;20220;-70
2023/10/03 00:47:42;;;;;;;10.23;7.63;;;19.60;99.90;;;;;;5027018;28;20216;-70
2023/10/03 00:50:10;;;;;;;8.87;7.10;;;19.50;99.90;;;;;;5026937;28;20316;-70
2023/10/03 00:52:38;;;;;;;9.90;7.10;;;19.50;99.90;;;;;;5026304;28;20217;-70
2023/10/03 00:55:06;;;;;;;9.43;7.53;;;19.50;99.90;;;;;;5006451;28;20305;-69
2023/10/03 00:57:33;;;;;;;9.43;7.70;;;19.40;99.90;;;;;;5018984;28;20281;-69
2023/10/03 01:00:05;;;;;;;8.33;7.07;;;19.40;99.90;;;;;;5026459;28;20660;-69
2023/10/03 01:02:32;;;;;;;10.63;7.10;;;19.40;99.90;;;;;;5027239;28;20508;-69
2023/10/03 01:05:02;;;;;;;9.50;6.70;;;19.40;99.90;;;;;;5027370;28;20270;-69
2023/10/03 01:07:29;;;;;;;8.33;7.17;;;19.40;99.90;;;;;;5013400;28;20328;-69
2023/10/03 01:09:56;;;;;;;8.83;6.77;;;19.40;99.90;;;;;;5008500;28;20292;-69
2023/10/03 01:12:23;;;;;;;10.33;7.03;;;19.40;99.90;;;;;;5026785;28;20221;-69
2023/10/03 01:14:50;;;;;;;10.60;6.83;;;19.40;99.90;;;;;;5026408;28;20213;-69
2023/10/03 01:17:19;;;;;;;12.13;7.50;;;19.40;99.90;;;;;;5026283;28;20940;-69
2023/10/03 01:19:47;;;;;;;9.17;7.00;;;19.40;99.90;;;;;;5026564;28;20229;-69
2023/10/03 01:22:14;;;;;;;12.77;7.13;;;19.40;99.90;;;;;;5026278;28;20240;-71
2023/10/03 01:24:44;;;;;;;9.20;6.90;;;19.40;99.90;;;;;;5026556;28;20667;-70
2023/10/03 01:27:11;;;;;;;12.47;7.47;;;19.40;99.90;;;;;;5026163;28;20201;-70
2023/10/03 01:29:38;;;;;;;7.53;6.67;;;19.30;99.90;;;;;;5026322;28;20299;-71
2023/10/03 01:32:06;;;;;;;8.97;7.10;;;19.30;99.90;;;;;;5026609;28;20232;-70
2023/10/03 01:34:33;;;;;;;12.73;6.90;;;19.30;99.90;;;;;;5009099;28;20209;-71
2023/10/03 01:37:00;;;;;;;11.97;7.77;;;19.20;99.90;;;;;;5014756;28;20358;-69
2023/10/03 01:39:27;;;;;;;8.80;7.03;;;19.20;99.90;;;;;;5026231;28;20501;-70
2023/10/03 01:41:55;;;;;;;11.70;7.37;;;19.20;99.90;;;;;;5026264;28;20236;-71
2023/10/03 01:44:22;;;;;;;9.10;6.90;;;19.10;99.90;;;;;;5025903;28;20219;-71
2023/10/03 01:46:50;;;;;;;12.10;7.30;;;19.10;99.90;;;;;;5025925;28;20279;-71
2023/10/03 01:49:16;;;;;;;10.23;7.63;;;19.20;99.90;;;;;;5026242;28;20201;-70
2023/10/03 01:51:43;;;;;;;10.60;7.47;;;19.20;99.90;;;;;;5025989;28;20303;-71
2023/10/03 01:54:10;;;;;;;12.13;6.93;;;19.20;99.90;;;;;;5025867;28;20586;-69
2023/10/03 01:56:37;;;;;;;9.90;6.53;;;19.10;99.90;;;;;;5025378;28;20825;-68
2023/10/03 01:59:06;;;;;;;11.43;7.27;;;19.10;99.90;;;;;;5025231;28;20248;-69
2023/10/03 02:01:35;;;;;;;11.83;7.33;;;19.10;99.90;;;;;;5025623;28;20232;-69
2023/10/03 02:04:02;;;;;;;10.80;7.10;;;19.10;99.90;;;;;;5025236;28;20212;-69
2023/10/03 02:06:29;;;;;;;10.80;7.23;;;19.10;99.90;;;;;;5024988;28;20209;-70
2023/10/03 02:08:57;;;;;;;9.80;7.60;;;19.10;99.90;;;;;;5025634;28;20275;-70
2023/10/03 02:11:26;;;;;;;9.87;7.20;;;19.00;99.90;;;;;;5025405;28;20306;-70
2023/10/03 02:13:54;;;;;;;11.60;6.73;;;19.00;99.90;;;;;;5025508;28;20208;-70
2023/10/03 02:16:22;;;;;;;11.80;7.30;;;19.00;99.90;;;;;;5025103;28;20219;-70
2023/10/03 02:18:52;;;;;;;9.33;7.07;;;18.90;99.90;;;;;;5025312;28;20205;-70
2023/10/03 02:21:19;;;;;;;12.13;6.90;;;18.90;99.90;;;;;;5024956;28;20284;-70
2023/10/03 02:23:47;;;;;;;8.37;6.87;;;19.00;99.90;;;;;;5025300;28;20752;-70
2023/10/03 02:26:16;;;;;;;11.13;7.07;;;18.90;99.90;;;;;;5025125;28;20204;-70
2023/10/03 02:28:43;;;;;;;9.57;7.40;;;18.90;99.90;;;;;;5025404;28;20205;-70
2023/10/03 02:31:10;;;;;;;9.13;7.30;;;18.80;99.90;;;;;;5024670;28;20294;-70
2023/10/03 02:33:43;;;;;;;9.47;6.87;;;18.80;99.90;;;;;;5025031;28;20287;-69
2023/10/03 02:36:10;;;;;;;9.23;7.20;;;18.80;99.90;;;;;;5024693;28;20277;-69
2023/10/03 02:38:37;;;;;;;9.83;7.60;;;18.70;99.90;;;;;;5024936;28;20221;-69
2023/10/03 02:41:06;;;;;;;9.43;7.43;;;18.70;99.90;;;;;;5024832;28;20304;-69
2023/10/03 02:43:35;;;;;;;11.90;7.63;;;18.70;99.90;;;;;;5024781;28;20326;-68
2023/10/03 02:46:05;;;;;;;9.17;6.87;;;18.70;99.90;;;;;;5024706;28;20965;-69
2023/10/03 02:48:32;;;;;;;9.63;7.27;;;18.70;99.90;;;;;;5025052;28;20205;-69
2023/10/03 02:51:01;;;;;;;10.67;7.30;;;18.60;99.90;;;;;;5024633;28;20212;-69
2023/10/03 02:53:29;;;;;;;13.17;7.27;;;18.60;99.90;;;;;;5024480;28;20216;-69
2023/10/03 02:55:55;;;;;;;9.30;6.63;;;18.50;99.90;;;;;;5024461;28;20212;-69
2023/10/03 02:58:22;;;;;;;10.13;7.23;;;18.50;99.90;;;;;;5024050;28;20215;-69
2023/10/03 03:00:50;;;;;;;9.57;7.23;;;18.50;99.90;;;;;;5023888;28;20229;-68
2023/10/03 03:03:17;;;;;;;12.77;8.00;;;18.50;99.90;;;;;;5024190;28;20749;-69
2023/10/03 03:05:44;;;;;;;11.87;7.40;;;18.50;99.90;;;;;;5024395;28;20232;-69
2023/10/03 03:08:23;;;;;;;11.17;7.43;;;18.50;99.90;;;;;;5023837;28;20335;-69
2023/10/03 03:10:54;;;;;;;12.77;7.73;;;18.40;99.90;;;;;;5024144;28;20932;-69
2023/10/03 03:13:22;;;;;;;12.03;8.80;;;18.40;99.90;;;;;;5024169;28;20292;-69
2023/10/03 03:15:56;;;;;;;12.13;8.13;;;18.40;99.90;;;;;;5023991;28;20742;-69
2023/10/03 03:18:24;;;;;;;15.03;8.30;;;18.40;99.90;;;;;;5024200;28;20262;-69
2023/10/03 03:20:54;;;;;;;14.83;8.93;;;18.40;99.90;;;;;;5024530;28;20207;-69
2023/10/03 03:23:27;;;;;;;12.53;8.70;;;18.40;99.90;;;;;;5024459;28;20786;-70
2023/10/03 03:26:02;;;;;;;12.97;9.17;;;18.50;99.90;;;;;;5024419;28;20943;-70
2023/10/03 03:28:29;;;;;;;13.67;8.50;;;18.50;99.90;;;;;;5023894;28;20203;-70
2023/10/03 03:30:57;;;;;;;14.00;8.63;;;18.50;99.90;;;;;;5014070;28;20320;-70
2023/10/03 03:33:27;;;;;;;13.27;8.83;;;18.50;99.90;;;;;;5024353;28;20219;-71
2023/10/03 03:35:54;;;;;;;11.77;8.40;;;18.50;99.90;;;;;;5024138;28;20244;-69
2023/10/03 03:38:22;;;;;;;14.00;9.00;;;18.50;99.90;;;;;;5024414;28;20283;-70
2023/10/03 03:40:56;;;;;;;11.40;8.57;;;18.50;99.90;;;;;;5024533;28;20904;-70
2023/10/03 03:43:24;;;;;;;12.53;8.73;;;18.50;99.90;;;;;;5023984;28;20213;-70
2023/10/03 03:45:52;;;;;;;14.17;9.93;;;18.50;99.90;;;;;;5016072;28;20240;-70
2023/10/03 03:48:21;;;;;;;12.33;8.73;;;18.50;99.90;;;;;;5004521;28;20235;-69
2023/10/03 03:50:50;;;;;;;13.63;9.07;;;18.50;99.90;;;;;;5023367;28;20209;-70
2023/10/03 03:53:18;;;;;;;13.20;8.97;;;18.50;99.90;;;;;;5024090;28;20213;-68
2023/10/03 03:55:45;;;;;;;14.53;9.10;;;18.50;99.90;;;;;;5024101;28;20271;-69
2023/10/03 03:58:18;;;;;;;13.80;9.40;;;18.50;99.90;;;;;;5023652;28;20833;-69
2023/10/03 04:00:50;;;;;;;15.47;9.47;;;18.50;99.90;;;;;;5023725;28;20680;-68
2023/10/03 04:03:18;;;;;;;14.77;9.50;;;18.50;99.90;;;;;;5023987;28;20217;-69
2023/10/03 04:05:46;;;;;;;13.83;9.07;;;18.50;99.90;;;;;;5024184;28;20233;-68
2023/10/03 04:08:14;;;;;;;17.37;9.83;;;18.50;99.90;;;;;;5023519;28;20351;-69
2023/10/03 04:10:43;;;;;;;14.47;9.90;;;18.50;99.90;;;;;;5023962;28;20264;-69
2023/10/03 04:13:10;;;;;;;15.40;10.33;;;18.50;99.90;;;;;;5023654;28;20244;-68
2023/10/03 04:15:40;;;;;;;16.10;9.97;;;18.40;99.90;;;;;;5023831;28;20213;-69
2023/10/03 04:18:08;;;;;;;15.57;10.60;;;18.40;99.90;;;;;;5024109;28;20209;-69
2023/10/03 04:20:39;;;;;;;16.30;10.13;;;18.40;99.90;;;;;;5024512;28;20201;-68
2023/10/03 04:23:07;;;;;;;14.30;9.03;;;18.40;99.90;;;;;;5024194;28;20306;-68
2023/10/03 04:25:34;;;;;;;13.43;9.80;;;18.40;99.90;;;;;;5024140;28;20725;-68
2023/10/03 04:28:02;;;;;;;15.30;9.97;;;18.30;99.90;;;;;;5025348;28;20220;-69
2023/10/03 04:30:30;;;;;;;13.57;9.77;;;18.40;99.90;;;;;;5027048;28;20225;-70
2023/10/03 04:32:59;;;;;;;15.87;9.53;;;18.30;99.90;;;;;;5027243;28;20746;-71
2023/10/03 04:35:26;;;;;;;14.00;9.63;;;18.30;99.90;;;;;;5025110;28;20762;-69
2023/10/03 04:37:55;;;;;;;15.00;10.37;;;18.30;99.90;;;;;;5026933;28;20270;-69
2023/10/03 04:40:28;;;;;;;18.17;10.43;;;18.30;99.90;;;;;;5026959;28;20193;-69
2023/10/03 04:42:57;;;;;;;13.83;10.20;;;18.30;99.90;;;;;;5027201;28;20598;-69
2023/10/03 04:45:25;;;;;;;13.43;9.60;;;18.30;99.90;;;;;;5025452;28;20204;-69
2023/10/03 04:47:53;;;;;;;20.43;10.93;;;18.30;99.90;;;;;;5026678;28;20201;-69
2023/10/03 04:50:25;;;;;;;14.57;9.83;;;18.30;99.90;;;;;;5027390;28;20288;-69
2023/10/03 04:52:52;;;;;;;13.67;9.87;;;18.30;99.90;;;;;;5027274;28;20197;-68
2023/10/03 04:55:21;;;;;;;14.40;10.57;;;18.30;99.90;;;;;;5027561;28;20366;-68
2023/10/03 04:57:50;;;;;;;14.93;10.07;;;18.30;99.90;;;;;;5027368;28;20765;-68
2023/10/03 05:00:18;;;;;;;17.03;10.63;;;18.30;99.90;;;;;;5027040;28;20217;-68
2023/10/03 05:02:47;;;;;;;16.60;10.50;;;18.30;99.90;;;;;;5026952;28;20796;-68
2023/10/03 05:05:16;;;;;;;15.13;9.57;;;18.20;99.90;;;;;;5026666;28;20209;-69
2023/10/03 05:07:44;;;;;;;17.07;10.70;;;18.20;99.90;;;;;;5026376;28;20233;-69
2023/10/03 05:10:11;;;;;;;17.87;10.97;;;18.20;99.90;;;;;;5027104;28;20270;-69
2023/10/03 05:12:39;;;;;;;17.63;10.57;;;18.30;99.90;;;;;;5016321;28;20304;-70
2023/10/03 05:15:07;;;;;;;20.23;10.90;;;18.30;99.90;;;;;;5006691;28;20220;-70
2023/10/03 05:17:35;;;;;;;19.37;10.47;;;18.30;99.90;;;;;;5006491;28;20217;-70
2023/10/03 05:20:02;;;;;;;14.20;10.07;;;18.40;99.90;;;;;;5006788;28;20234;-71
2023/10/03 05:22:31;;;;;;;18.77;10.83;;;18.40;99.90;;;;;;5006673;28;20255;-71
2023/10/03 05:25:01;;;;;;;18.83;10.53;;;18.40;99.90;;;;;;5025906;28;20236;-71
2023/10/03 05:27:29;;;;;;;16.97;10.73;;;18.30;99.90;;;;;;5026779;28;20212;-71
2023/10/03 05:29:59;;;;;;;15.23;10.70;;;18.40;99.90;;;;;;5025977;28;20289;-71
2023/10/03 05:32:28;;;;;;;18.57;10.57;;;18.40;99.90;;;;;;5026650;28;20231;-70
2023/10/03 05:34:55;;;;;;;15.20;10.07;;;18.40;99.90;;;;;;5026604;28;20205;-70
2023/10/03 05:37:22;;;;;;;16.67;10.60;;;18.50;99.90;;;;;;5026957;28;20213;-71
2023/10/03 05:39:49;;;;;;;17.83;10.87;;;18.50;99.90;;;;;;5026190;28;20245;-70
2023/10/03 05:42:18;;;;;;;18.80;10.37;;;18.50;99.90;;;;;;5025493;28;20193;-69
2023/10/03 05:44:45;;;;;;;16.57;10.23;;;18.50;99.90;;;;;;5026140;28;20209;-69
2023/10/03 05:47:12;;;;;;;15.67;10.37;;;18.50;99.90;;;;;;5026188;28;20305;-69
2023/10/03 05:49:39;;;;;;;15.80;10.53;;;18.50;99.90;;;;;;5026174;28;20284;-69
2023/10/03 05:52:08;;;;;;;16.67;10.20;;;18.50;99.90;;;;;;5025958;28;20292;-69
2023/10/03 05:54:35;;;;;;;17.77;10.67;;;18.50;99.90;;;;;;5025935;28;20212;-69
2023/10/03 05:57:02;;;;;;;16.87;10.60;;;18.50;99.90;;;;;;5026051;28;20299;-69
2023/10/03 05:59:31;;;;;;;18.00;11.30;;;18.60;99.90;;;;;;5018966;28;20707;-70
2023/10/03 06:01:58;;;;;;;17.57;10.87;;;18.60;99.90;;;;;;5006256;28;20220;-69
2023/10/03 06:04:26;;;;;;;17.30;11.03;;;18.60;99.90;;;;;;5006112;28;20237;-69
2023/10/03 06:06:54;;;;;;;19.93;11.17;;;18.60;99.90;;;;;;5009610;28;20287;-69
2023/10/03 06:09:22;;;;;;;15.47;11.40;;;18.60;99.90;;;;;;5026204;28;20237;-69
2023/10/03 06:11:51;;;;;;;16.90;10.27;;;18.50;99.90;;;;;;5021809;28;20671;-69
2023/10/03 06:14:18;;;;;;;17.67;10.90;;;18.50;99.90;;;;;;5005642;28;20300;-69
2023/10/03 06:16:46;;;;;;;15.77;11.07;;;18.50;99.90;;;;;;5011929;28;20282;-69
2023/10/03 06:19:13;;;;;;;20.53;11.73;;;18.50;99.90;;;;;;5025638;28;20243;-70
2023/10/03 06:21:41;;;;;;;19.40;10.93;;;18.60;99.90;;;;;;5025416;28;20258;-70
2023/10/03 06:24:08;;;;;;;19.97;12.27;;;18.60;99.90;;;;;;5025581;28;20236;-70
2023/10/03 06:26:36;;;;;;;15.80;11.07;;;18.60;99.90;;;;;;5025580;28;20587;-71
2023/10/03 06:29:03;;;;;;;17.30;11.13;;;18.60;99.90;;;;;;5025763;28;20601;-71
2023/10/03 06:31:31;;;;;;;16.57;11.43;;;18.60;99.90;;;;;;5025404;28;20275;-71
2023/10/03 06:34:00;;;;;;;21.10;11.73;;;18.50;99.90;;;;;;5025271;28;20205;-73
2023/10/03 06:36:27;;;;;;;16.23;11.30;;;18.50;99.90;;;;;;5025339;28;20679;-71
2023/10/03 06:38:54;;;;;;;20.10;11.37;;;18.60;99.90;;;;;;5025303;28;20205;-71
2023/10/03 06:41:21;;;;;;;16.07;10.20;;;18.60;99.90;;;;;;5025052;28;20645;-70
2023/10/03 06:43:49;;;;;;;19.83;11.73;;;18.60;99.90;;;;;;5025152;28;20233;-71
2023/10/03 06:46:16;;;;;;;21.17;11.63;;;18.70;99.90;;;;;;5024796;28;20208;-71
2023/10/03 06:48:46;;;;;;;17.40;11.47;;;18.70;99.90;;;;;;5025462;28;20291;-71
2023/10/03 06:51:14;;;;;;;16.27;11.10;;;18.80;99.90;;;;;;5024328;28;20213;-70
2023/10/03 06:53:42;;;;;;;21.43;12.87;;;18.80;99.90;;;;;;5016500;28;20300;-70
2023/10/03 06:56:09;;;;;;;17.73;11.40;;;18.80;99.90;;;;;;5015057;28;20768;-69
2023/10/03 06:58:36;;;;;;;18.40;11.40;;;18.80;99.90;;;;;;5025140;28;20667;-69
2023/10/03 07:01:03;;;;;;;19.60;12.40;;;18.80;99.90;;;;;;5024713;28;20319;-69
2023/10/03 07:03:30;;;;;;;17.03;11.43;;;18.90;99.90;;;;;;5025253;28;20233;-69
2023/10/03 07:05:58;;;;;;;19.17;11.90;;;19.00;99.90;;;;;;5025422;28;20296;-70
2023/10/03 07:08:27;;;;;;;20.20;12.00;;;19.00;99.90;;;;;;5024703;28;20323;-70
2023/10/03 07:10:57;;;;;;;20.23;12.50;;;19.00;99.90;;;;;;5025152;28;20201;-69
2023/10/03 07:13:24;;;;;;;19.67;11.73;;;19.00;99.90;;;;;;5023798;28;20204;-69
2023/10/03 07:15:51;;;;;;;18.90;12.03;;;19.00;99.90;;;;;;5024184;28;20208;-69
2023/10/03 07:18:18;;;;;;;17.97;11.23;;;18.90;99.90;;;;;;5024515;28;20287;-69
2023/10/03 07:20:47;;;;;;;22.37;13.77;;;19.00;99.90;;;;;;5024926;28;20258;-70
2023/10/03 07:23:13;;;;;;;20.53;13.03;;;19.00;99.90;;;;;;5024112;28;20718;-69
2023/10/03 07:25:42;;;;;;;21.20;12.43;;;19.10;99.90;;;;;;5024768;28;20720;-69
2023/10/03 07:28:09;;;;;;;23.47;12.47;;;19.20;99.90;;;;;;5024764;28;20303;-70
2023/10/03 07:30:36;;;;;;;21.10;12.80;;;19.30;99.90;;;;;;5024501;28;20347;-69
2023/10/03 07:33:05;;;;;;;21.47;12.27;;;19.30;99.90;;;;;;5024859;28;20318;-69
2023/10/03 07:35:34;;;;;;;22.30;13.27;;;19.40;99.90;;;;;;5024758;28;20208;-69
2023/10/03 07:38:01;;;;;;;18.33;12.43;;;19.50;99.90;;;;;;5024933;28;20278;-70
2023/10/03 07:40:28;;;;;;;21.20;12.80;;;19.50;99.90;;;;;;5024496;28;20205;-70
2023/10/03 07:42:56;;;;;;;19.03;12.30;;;19.60;99.90;;;;;;5023974;28;20247;-69
2023/10/03 07:45:23;;;;;;;20.27;13.00;;;19.60;99.90;;;;;;5024406;28;20208;-70
2023/10/03 07:47:50;;;;;;;21.97;13.37;;;19.60;99.90;;;;;;5024138;28;20219;-70
2023/10/03 07:50:18;;;;;;;22.43;13.33;;;19.70;99.90;;;;;;5024586;28;20545;-71
2023/10/03 07:52:48;;;;;;;23.47;13.87;;;19.70;99.90;;;;;;5024365;28;20215;-70
2023/10/03 07:55:15;;;;;;;20.20;13.20;;;19.80;99.90;;;;;;5024206;28;20213;-70
2023/10/03 07:57:42;;;;;;;21.08;13.25;;;19.90;99.90;;;;;;5024079;28;20216;-70
2023/10/03 08:00:20;;;;;;;23.97;14.30;;;20.00;99.90;;;;;;5024077;28;20209;-70
2023/10/03 08:02:49;;;;;;;24.20;14.33;;;20.10;99.90;;;;;;5024574;28;20204;-70
2023/10/03 08:05:17;;;;;;;22.17;13.52;;;20.20;99.90;;;;;;5027762;28;20241;-70
2023/10/03 08:07:47;;;;;;;23.25;13.45;;;20.30;99.90;;;;;;5027736;28;20237;-70
2023/10/03 08:10:15;;;;;;;21.37;13.97;;;20.40;99.90;;;;;;5028060;28;20302;-70
2023/10/03 08:12:42;;;;;;;23.15;14.20;;;20.60;99.90;;;;;;5027936;28;20295;-70
2023/10/03 08:15:17;;;;;;;21.73;13.25;;;20.70;99.90;;;;;;5027772;28;20276;-70
2023/10/03 08:17:48;;;;;;;23.30;14.38;;;20.70;99.90;;;;;;5027823;28;20251;-70
2023/10/03 08:20:15;;;;;;;22.13;13.48;;;20.80;99.90;;;;;;5027678;28;20203;-70
2023/10/03 08:22:46;;;;;;;25.00;14.00;;;20.80;99.90;;;;;;5027429;28;20209;-69
2023/10/03 08:25:13;;;;;;;24.73;14.70;;;20.80;99.90;;;;;;5027229;28;20224;-69
2023/10/03 08:27:46;;;;;;;21.83;13.57;;;20.80;99.90;;;;;;5027694;28;20281;-69
2023/10/03 08:30:26;;;;;;;23.60;14.77;;;20.80;99.90;;;;;;5027306;28;20228;-69
2023/10/03 08:32:55;;;;;;;22.75;14.35;;;20.90;99.90;;;;;;5026662;28;20619;-69
2023/10/03 08:35:34;;;;;;;26.52;14.52;;;20.90;99.90;;;;;;5027330;28;20215;-70
2023/10/03 08:38:05;;;;;;;21.00;13.43;;;20.90;99.90;;;;;;5027635;28;20308;-69
2023/10/03 08:40:36;;;;;;;20.15;12.82;;;21.00;99.90;;;;;;5027216;28;20193;-69
2023/10/03 08:43:08;;;;;;;24.40;15.15;;;21.00;99.90;;;;;;5027594;28;20288;-69
2023/10/03 08:45:40;;;;;;;24.07;14.53;;;21.00;99.90;;;;;;5027349;28;20473;-70
2023/10/03 08:48:08;;;;;;;23.77;14.23;;;21.00;99.90;;;;;;5026858;28;20197;-69
2023/10/03 08:50:40;;;;;;;24.00;14.52;;;21.00;99.90;;;;;;5027207;28;20208;-68
2023/10/03 08:53:15;;;;;;;23.73;13.68;;;21.00;99.90;;;;;;5011562;28;20655;-71
2023/10/03 08:55:44;;;;;;;20.73;13.40;;;20.90;99.90;;;;;;5027066;28;20291;-71
2023/10/03 08:58:13;;;;;;;22.75;13.88;;;21.00;99.90;;;;;;5026093;28;20201;-70
2023/10/03 09:00:45;;;;;;;22.95;14.10;;;21.00;99.90;;;;;;5027234;28;20216;-69
2023/10/03 09:03:14;;;;;;;24.85;13.30;;;21.00;99.90;;;;;;5027101;28;20212;-70
2023/10/03 09:05:41;;;;;;;19.88;13.10;;;21.10;99.90;;;;;;5026924;28;20231;-71
2023/10/03 09:08:09;;;;;;;24.27;14.03;;;21.10;99.90;;;;;;5026131;28;20323;-71
2023/10/03 09:10:50;;;;;;;23.00;14.10;;;21.30;99.90;;;;;;5026796;28;20588;-71
2023/10/03 09:13:23;;;;;;;21.33;12.80;;;21.40;99.90;;;;;;5026643;28;20290;-68
2023/10/03 09:15:59;;;;;;;21.75;13.82;;;21.50;99.90;;;;;;5025631;28;20193;-70
2023/10/03 09:18:27;;;;;;;18.10;12.73;;;21.60;99.90;;;;;;5027214;28;20196;-70
2023/10/03 09:20:59;;;;;;;26.60;13.07;;;21.70;99.90;;;;;;5027349;28;20219;-70
2023/10/03 09:23:38;;;;;;;24.70;13.50;;;21.70;99.90;;;;;;5026707;28;20296;-70
2023/10/03 09:26:06;;;;;;;23.48;13.40;;;21.80;99.90;;;;;;5007372;28;20197;-70
2023/10/03 09:28:36;;;;;;;23.30;13.07;;;21.80;99.90;;;;;;5021792;28;20220;-70
2023/10/03 09:31:08;;;;;;;22.17;12.95;;;21.90;99.90;;;;;;5025111;28;20232;-70
2023/10/03 09:33:39;;;;;;;20.30;12.35;;;21.90;99.90;;;;;;5025395;28;20710;-69
2023/10/03 09:36:07;;;;;;;25.48;13.07;;;22.00;99.90;;;;;;5025555;28;20735;-70
2023/10/03 09:38:42;;;;;;;20.90;13.47;;;22.10;99.90;;;;;;5025377;28;20299;-70
2023/10/03 09:41:16;;;;;;;22.80;12.98;;;22.20;99.90;;;;;;5025137;28;20675;-70
2023/10/03 09:43:49;;;;;;;21.05;14.60;;;22.30;99.90;;;;;;5025348;28;20278;-70
2023/10/03 09:46:23;;;;;;;24.27;13.50;;;22.40;99.90;;;;;;5025905;28;20193;-70
2023/10/03 09:48:55;;;;;;;22.15;14.43;;;22.30;99.90;;;;;;5025756;28;20296;-70
2023/10/03 09:51:36;;;;;;;20.95;12.75;;;22.30;99.90;;;;;;5024976;28;20193;-70
2023/10/03 09:54:08;;;;;;;22.85;12.77;;;22.40;99.90;;;;;;5025712;28;20238;-70
2023/10/03 09:56:40;;;;;;;24.70;11.98;;;22.50;99.90;;;;;;5026113;28;20282;-70
2023/10/03 09:59:08;;;;;;;18.15;11.98;;;22.60;99.90;;;;;;5025728;28;20193;-70
2023/10/03 10:01:39;;;;;;;21.67;12.75;;;22.70;99.90;;;;;;5025504;28;20220;-69
2023/10/03 10:04:09;;;;;;;21.58;12.13;;;22.80;99.90;;;;;;5024809;28;20228;-69
2023/10/03 10:06:47;;;;;;;22.10;12.60;;;23.00;99.90;;;;;;5025202;28;20323;-69
2023/10/03 10:09:28;;;;;;;20.33;12.48;;;23.10;99.90;;;;;;5025559;28;20223;-69
2023/10/03 10:12:14;;;;;;;22.48;12.45;;;23.20;99.90;;;;;;5024431;28;20204;-69
2023/10/03 10:15:13;;;;;;;18.58;11.52;;;23.20;99.90;;;;;;5024543;28;20212;-69
2023/10/03 10:17:59;;;;;;;23.40;13.07;;;23.30;99.90;;;;;;5005247;28;20301;-69
2023/10/03 10:20:37;;;;;;;20.25;11.77;;;23.30;99.90;;;;;;5019280;28;20536;-69
2023/10/03 10:23:13;;;;;;;20.30;12.13;;;23.30;99.90;;;;;;5020870;28;20241;-70
2023/10/03 10:25:49;;;;;;;19.40;12.07;;;23.40;99.90;;;;;;5023692;28;20240;-69
2023/10/03 10:28:21;;;;;;;20.08;11.82;;;23.40;99.90;;;;;;5024221;28;20311;-69
2023/10/03 10:31:21;;;;;;;20.02;11.77;;;23.50;99.90;;;;;;5024094;28;20225;-69
2023/10/03 10:33:50;;;;;;;20.13;12.15;;;23.50;99.90;;;;;;5004877;28;20197;-69
2023/10/03 10:36:18;;;;;;;16.90;10.60;;;23.50;99.90;;;;;;5004555;28;20214;-71
2023/10/03 10:38:55;;;;;;;17.08;11.68;;;23.50;99.90;;;;;;5004886;28;20213;-70
2023/10/03 10:41:26;;;;;;;20.08;11.13;;;23.60;99.90;;;;;;5004483;28;20558;-70
2023/10/03 10:44:06;;;;;;;22.50;11.68;;;23.60;99.90;;;;;;5005989;28;20932;-70
2023/10/03 10:46:35;;;;;;;20.48;11.02;;;23.70;99.90;;;;;;5024446;28;20498;-69
2023/10/03 10:49:06;;;;;;;18.55;10.93;;;23.70;99.90;;;;;;5024927;28;20304;-69
2023/10/03 10:51:34;;;;;;;16.10;10.95;;;23.70;99.90;;;;;;5024528;28;20197;-69
2023/10/03 10:54:02;;;;;;;20.67;11.00;;;23.60;99.90;;;;;;5024111;28;20302;-69
2023/10/03 10:56:32;;;;;;;20.95;10.98;;;23.60;99.90;;;;;;5023967;28;20282;-69
2023/10/03 10:59:10;;;;;;;16.77;10.73;;;23.50;99.90;;;;;;5024276;28;20211;-69
2023/10/03 11:01:41;;;;;;;15.73;10.60;;;23.50;99.90;;;;;;5024407;28;20304;-69
2023/10/03 11:04:23;;;;;;;14.30;9.93;;;23.50;99.90;;;;;;5024730;28;20290;-69
2023/10/03 11:06:52;;;;;;;18.70;10.57;;;23.50;99.90;;;;;;5024150;28;20235;-69
2023/10/03 11:09:20;;;;;;;18.25;10.38;;;23.50;99.90;;;;;;5024487;28;20747;-69
2023/10/03 11:11:49;;;;;;;16.83;10.90;;;23.50;99.90;;;;;;5024141;28;20220;-69
2023/10/03 11:14:26;;;;;;;17.77;12.38;;;23.50;99.90;;;;;;5023538;28;20205;-69
2023/10/03 11:16:53;;;;;;;23.45;11.90;;;23.50;99.90;;;;;;5010133;28;20301;-69
2023/10/03 11:19:21;;;;;;;16.95;9.98;;;23.50;99.90;;;;;;5004685;28;20217;-70
2023/10/03 11:21:49;;;;;;;15.60;9.75;;;23.50;99.90;;;;;;5004660;28;20205;-70
2023/10/03 11:24:17;;;;;;;14.93;10.40;;;23.50;99.90;;;;;;5017970;28;20320;-70
2023/10/03 11:26:45;;;;;;;17.88;10.60;;;23.40;99.90;;;;;;5024301;28;20240;-70
2023/10/03 11:29:14;;;;;;;15.63;10.35;;;23.50;99.90;;;;;;5023932;28;20378;-70
2023/10/03 11:31:42;;;;;;;14.35;9.57;;;23.40;99.90;;;;;;5024304;28;20891;-70
2023/10/03 11:34:09;;;;;;;16.48;9.70;;;23.40;99.90;;;;;;5024054;28;20205;-70
2023/10/03 11:36:45;;;;;;;11.65;9.35;;;23.40;99.90;;;;;;5024168;28;20640;-70
2023/10/03 11:39:23;;;;;;;19.95;9.35;;;23.40;99.90;;;;;;5026966;28;20212;-70
2023/10/03 11:41:50;;;;;;;14.60;9.73;;;23.30;99.90;;;;;;5027625;28;20686;-70
2023/10/03 11:44:20;;;;;;;13.80;8.93;;;23.30;99.90;;;;;;5027555;28;20216;-69
2023/10/03 11:46:47;;;;;;;15.25;9.13;;;23.20;99.90;;;;;;5028126;28;20986;-69
2023/10/03 11:49:15;;;;;;;13.73;9.65;;;23.20;99.90;;;;;;5027714;28;20667;-69
2023/10/03 11:51:44;;;;;;;14.10;9.25;;;23.20;99.90;;;;;;5027574;28;20309;-70
2023/10/03 11:54:11;;;;;;;15.75;9.30;;;23.20;99.90;;;;;;5027512;28;20201;-70
2023/10/03 11:56:43;;;;;;;13.65;9.05;;;23.10;99.90;;;;;;5025455;28;20660;-70
2023/10/03 11:59:14;;;;;;;13.23;8.98;;;23.10;99.90;;;;;;5007485;28;20213;-70
2023/10/03 12:01:46;;;;;;;13.90;9.57;;;23.00;99.90;;;;;;5008777;28;20204;-71
2023/10/03 12:04:14;;;;;;;19.88;10.07;;;22.90;99.90;;;;;;5027168;28;20211;-71
2023/10/03 12:06:41;;;;;;;18.38;9.40;;;22.90;99.90;;;;;;5027247;28;20827;-71
2023/10/03 12:09:10;;;;;;;14.77;8.63;;;22.90;99.90;;;;;;5027284;28;20719;-71
2023/10/03 12:11:40;;;;;;;17.35;9.52;;;22.80;99.90;;;;;;5027079;28;20672;-70
2023/10/03 12:14:07;;;;;;;17.15;8.85;;;22.80;99.90;;;;;;5027488;28;20284;-70
2023/10/03 12:16:34;;;;;;;12.80;9.20;;;22.80;99.90;;;;;;5026850;28;20300;-70
2023/10/03 12:19:02;;;;;;;14.30;8.90;;;22.80;99.90;;;;;;5027226;28;20315;-70
2023/10/03 12:21:28;;;;;;;15.07;9.15;;;22.80;99.90;;;;;;5026786;28;20258;-69
2023/10/03 12:23:55;;;;;;;11.85;8.43;;;22.80;99.90;;;;;;5026759;28;20292;-70
2023/10/03 12:26:24;;;;;;;12.05;8.85;;;22.80;99.90;;;;;;5026315;28;20236;-70
2023/10/03 12:28:52;;;;;;;14.25;8.32;;;22.90;99.90;;;;;;5026490;28;20228;-70
2023/10/03 12:31:25;;;;;;;12.52;8.18;;;22.90;99.90;;;;;;5026256;28;20208;-70
2023/10/03 12:33:52;;;;;;;14.20;8.35;;;23.00;99.90;;;;;;5025182;28;20205;-70
2023/10/03 12:36:19;;;;;;;13.73;9.73;;;23.00;99.90;;;;;;5031820;28;20573;-69
2023/10/03 12:38:47;;;;;;;13.95;9.02;;;23.00;99.90;;;;;;5028315;28;20316;-69
2023/10/03 12:41:14;;;;;;;11.25;7.68;;;23.00;99.90;;;;;;5016644;28;20295;-69
2023/10/03 12:43:46;;;;;;;12.77;7.93;;;23.00;99.90;;;;;;5017235;28;20566;-69